TimeCDT,TemperatureF,Dew PointF,Humidity,Sea Level PressureIn,VisibilityMPH,Wind Direction,Wind SpeedMPH,Gust SpeedMPH,PrecipitationIn,Events,Conditions,WindDirDegrees,DateUTC
12:53 AM,82.9,75.0,77,29.94,10.0,ESE,12.7,-,N/A,,Clear,120,2013-07-16 05:53:00
1:53 AM,82.0,75.0,79,29.94,10.0,ESE,10.4,-,N/A,,Clear,120,2013-07-16 06:53:00
2:53 AM,82.0,73.9,76,29.93,10.0,ESE,11.5,-,N/A,,Clear,120,2013-07-16 07:53:00
3:53 AM,81.0,75.0,82,29.91,10.0,ESE,8.1,-,N/A,,Clear,120,2013-07-16 08:53:00
4:53 AM,80.1,75.0,85,29.90,10.0,ESE,4.6,-,N/A,,Clear,110,2013-07-16 09:53:00
5:53 AM,80.1,73.9,81,29.90,9.0,East,4.6,-,N/A,,Clear,100,2013-07-16 10:53:00
6:53 AM,79.0,73.9,84,29.91,10.0,East,3.5,-,N/A,,Clear,90,2013-07-16 11:53:00
7:53 AM,80.1,73.9,81,29.93,9.0,SE,4.6,-,N/A,,Clear,140,2013-07-16 12:53:00
8:53 AM,81.0,73.9,79,29.95,9.0,East,13.8,-,N/A,,Mostly Cloudy,100,2013-07-16 13:53:00
9:01 AM,80.6,73.4,79,29.95,8.0,ESE,15.0,-,N/A,,Overcast,110,2013-07-16 14:01:00
9:23 AM,78.8,73.4,83,29.96,6.0,East,6.9,-,0.01,Rain,Light Rain,80,2013-07-16 14:23:00
9:53 AM,79.0,75.0,88,29.97,9.0,ESE,5.8,-,0.01,,Partly Cloudy,120,2013-07-16 14:53:00
10:53 AM,80.1,75.9,87,29.97,8.0,East,5.8,-,N/A,,Clear,100,2013-07-16 15:53:00
11:53 AM,81.0,75.9,85,29.97,8.0,ESE,11.5,-,N/A,,Scattered Clouds,110,2013-07-16 16:53:00
12:53 PM,84.0,75.0,74,29.98,8.0,ESE,12.7,-,N/A,,Clear,120,2013-07-16 17:53:00
1:53 PM,87.1,73.9,65,29.96,10.0,East,15.0,21.9,N/A,,Clear,100,2013-07-16 18:53:00
2:53 PM,87.1,75.0,67,29.94,9.0,East,17.3,21.9,N/A,,Partly Cloudy,100,2013-07-16 19:53:00
3:53 PM,88.0,75.0,65,29.95,10.0,East,15.0,21.9,N/A,,Partly Cloudy,100,2013-07-16 20:53:00
4:53 PM,81.0,75.0,82,29.96,1.0,SE,19.6,33.4,0.24,Rain,Heavy Rain,140,2013-07-16 21:53:00
5:00 PM,78.8,75.2,89,29.96,0.8,SE,19.6,28.8,0.07,Rain,Light Rain,140,2013-07-16 22:00:00
5:04 PM,78.8,75.2,89,29.95,2.5,SE,17.3,-,0.07,Rain,Heavy Rain,140,2013-07-16 22:04:00
5:10 PM,78.8,75.2,89,29.95,5.0,SE,11.5,23.0,0.07,Rain,Light Rain,140,2013-07-16 22:10:00
5:53 PM,78.1,73.9,87,29.95,9.0,ESE,5.8,-,0.07,,Scattered Clouds,120,2013-07-16 22:53:00
6:53 PM,81.0,75.0,82,29.94,9.0,ESE,11.5,-,N/A,,Mostly Cloudy,120,2013-07-16 23:53:00
7:53 PM,81.0,75.0,82,29.94,9.0,ESE,10.4,-,N/A,,Clear,110,2013-07-17 00:53:00
8:38 PM,80.6,75.2,84,29.96,8.0,SE,8.1,-,0.00,Rain,Light Rain,130,2013-07-17 01:38:00
8:53 PM,79.0,75.9,90,29.96,9.0,SE,10.4,-,0.02,Rain,Light Rain,140,2013-07-17 01:53:00
9:06 PM,78.8,75.2,89,29.96,10.0,SE,11.5,-,0.00,,Mostly Cloudy,130,2013-07-17 02:06:00
9:53 PM,79.0,75.0,88,29.98,10.0,SE,10.4,-,0.00,,Partly Cloudy,130,2013-07-17 02:53:00
10:53 PM,79.0,75.0,88,30.00,10.0,ESE,10.4,-,N/A,,Scattered Clouds,120,2013-07-17 03:53:00
11:53 PM,75.9,73.9,94,30.02,10.0,South,6.9,-,0.03,,Mostly Cloudy,170,2013-07-17 04:53:00